Currently 73°F in Murrieta, California, USA
73°F
73°F / 73°F
calm
0.00"
Sunday, September 15, 2019 12:45 AM PDT

Murrieta, California Weather Summary
Last 36 Hours

Temperature Winds Hourly Humidity Dewpoint
Time Report Norm Report Norm Max Gusts Precip. Rpt. Norm Rpt. Norm Pressure
1,3Sun 12:45 AM  72.8°F  64°F  calm  2 mph  6 mph  0.00"  39%  80%  46°F  57°F  29.96"
2Sun 12:24 AM  73.2°F  64°F  calm  1 mph  8 mph  ----  39%  79%  46°F  57°F  29.96"
Sun 12:00 AM  72.9°F  64°F  4 mph SW  2 mph  6 mph  0.00"  39%  79%  46°F  57°F  29.96"
Sat 11:00 PM  74.7°F  65°F  calm  2 mph  2 mph  0.00"  39%  78%  47°F  58°F  29.96"
Sat 10:00 PM  76.4°F  67°F  calm  3 mph  4 mph  0.00"  36%  77%  46°F  59°F  29.96"
Sat 09:00 PM  79.2°F  68°F  calm  4 mph  2 mph  0.00"  35%  74%  48°F  59°F  29.95"
Sat 08:00 PM  83.3°F  71°F  calm  6 mph  8 mph  0.00"  29%  70%  46°F  60°F  29.93"
Sat 07:00 PM  89.5°F  74°F  3 mph SE  7 mph  14 mph  0.00"  21%  61%  42°F  59°F  29.89"
Sat 06:00 PM  92.6°F  78°F  calm  8 mph  15 mph  0.00"  16%  52%  38°F  58°F  29.89"
Sat 05:00 PM  96.1°F  82°F  7 mph W  10 mph  18 mph  0.00"  17%  44%  42°F  57°F  29.88"
Sat 04:00 PM  98.8°F  84°F  8 mph SW  10 mph  20 mph  0.00"  13%  39%  38°F  56°F  29.89"
Sat 03:00 PM  97.9°F  85°F  13 mph SW  10 mph  18 mph  0.00"  17%  37%  44°F  56°F  29.89"
Sat 02:00 PM  99.0°F  86°F  10 mph SW  9 mph  17 mph  0.00"  15%  37%  41°F  56°F  29.91"
Sat 01:00 PM  99.1°F  86°F  7 mph SW  7 mph  12 mph  0.00"  15%  37%  41°F  55°F  29.95"
Sat 12:00 PM  99.0°F  84°F  calm  5 mph  7 mph  0.00"  12%  40%  35°F  56°F  29.97"
Sat 11:00 AM  92.5°F  80°F  2 mph SE  4 mph  7 mph  0.00"  17%  48%  40°F  58°F  29.99"
Sat 10:00 AM  87.6°F  76°F  3 mph S  2 mph  5 mph  0.00"  30%  59%  52°F  60°F  30.00"
Sat 09:00 AM  77.7°F  70°F  calm  1 mph  none  0.00"  44%  72%  53°F  61°F  30.00"
Sat 08:00 AM  67.9°F  64°F  calm  1 mph  none  0.00"  58%  82%  52°F  58°F  30.00"
Sat 07:00 AM  63.8°F  61°F  calm  1 mph  none  0.00"  60%  84%  49°F  56°F  29.99"
Sat 06:00 AM  64.0°F  61°F  calm  1 mph  3 mph  0.00"  58%  84%  48°F  56°F  29.98"
Sat 05:00 AM  65.3°F  61°F  calm  1 mph  6 mph  0.00"  58%  84%  50°F  56°F  29.98"
Sat 04:00 AM  67.7°F  62°F  3 mph SW  1 mph  5 mph  0.00"  48%  83%  47°F  56°F  29.97"
Sat 03:00 AM  69.2°F  62°F  calm  1 mph  6 mph  0.00"  46%  82%  47°F  56°F  29.97"
Sat 02:00 AM  71.4°F  63°F  calm  1 mph  6 mph  0.00"  43%  81%  47°F  57°F  29.98"
Sat 01:00 AM  73.2°F  64°F  calm  1 mph  7 mph  0.00"  44%  80%  49°F  57°F  29.98"
Sat 12:00 AM  73.8°F  64°F  calm  2 mph  6 mph  0.00"  47%  79%  51°F  58°F  29.98"
Fri 11:00 PM  75.9°F  65°F  calm  2 mph  5 mph  0.00"  41%  78%  49°F  58°F  29.98"
Fri 10:00 PM  76.1°F  67°F  calm  3 mph  2 mph  0.00"  51%  77%  56°F  59°F  29.98"
Fri 09:00 PM  79.9°F  68°F  calm  4 mph  5 mph  0.00"  48%  74%  58°F  60°F  29.97"
Fri 08:00 PM  86.4°F  71°F  calm  6 mph  9 mph  0.00"  22%  70%  42°F  60°F  29.94"
Fri 07:00 PM  90.3°F  75°F  4 mph W  7 mph  13 mph  0.00"  17%  61%  38°F  60°F  29.91"
Fri 06:00 PM  92.9°F  78°F  calm  8 mph  15 mph  0.00"  17%  51%  40°F  58°F  29.91"
Fri 05:00 PM  95.6°F  82°F  6 mph W  10 mph  15 mph  0.00"  18%  44%  44°F  57°F  29.91"
Fri 04:00 PM  98.2°F  85°F  3 mph SW  10 mph  20 mph  0.00"  16%  39%  42°F  56°F  29.91"
Fri 03:00 PM  97.3°F  86°F  10 mph SW  10 mph  19 mph  0.00"  15%  37%  41°F  56°F  29.93"
Fri 02:00 PM  98.0°F  86°F  10 mph SW  9 mph  18 mph  0.00"  15%  37%  42°F  56°F  29.95"
Fri 01:00 PM  99.9°F  86°F  2 mph S  7 mph  8 mph  0.00"  8%  37%  26°F  56°F  29.97"
Fri 12:00 PM  99.0°F  84°F  1 mph NW  5 mph  6 mph  0.00"  11%  41%  34°F  56°F  30.00"

  1. Current weather data. No green row appears if the current weather data is also the high or low for the current day.
  2. High temperature for the current day.
  3. Low temperature for the current day.

The Murrieta weather pages are a service of WeatherCurrents. Murrieta, California is located in the Temecula Valley, in southwestern Riverside County, at the junctions of the Interstate 15 and 215 highways.
Copyright ©2019  WeatherCurrents. All rights reserved. - Submit questions and comments - Privacy Policy

This page automatically refreshes every 10 minutes.